Time;durP1;ratioP1;P1;durP2;ratioP2;P2;SDS_P1;SDS_P2;PMS_P1;PMS_P2;Temp;Humidity;BMP_temperature;BMP_pressure;BME280_temperature;BME280_humidity;BME280_pressure;Samples;Min_cycle;Max_cycle;Signal;HPM_P1;HPM_P2
2021/05/05 00:00:14;;;;;;;9.10;8.50;;;23.60;78.50;;;;;;3555940;40;20509;-58
2021/05/05 00:02:43;;;;;;;8.40;8.00;;;23.60;78.50;;;;;;3556230;40;20569;-57
2021/05/05 00:05:11;;;;;;;8.57;8.10;;;23.50;78.40;;;;;;3556511;40;20474;-58
2021/05/05 00:07:39;;;;;;;7.93;7.43;;;23.60;78.50;;;;;;3555072;40;20485;-57
2021/05/05 00:10:07;;;;;;;9.60;8.97;;;23.50;78.50;;;;;;3556072;40;20486;-57
2021/05/05 00:12:35;;;;;;;9.10;8.50;;;23.50;78.50;;;;;;3555289;40;20543;-57
2021/05/05 00:15:01;;;;;;;9.07;8.50;;;23.60;78.60;;;;;;3556696;40;20236;-57
2021/05/05 00:17:29;;;;;;;8.63;8.07;;;23.50;78.40;;;;;;3556972;40;20481;-56
2021/05/05 00:19:55;;;;;;;7.90;7.50;;;23.50;78.50;;;;;;3557194;40;20575;-57
2021/05/05 00:22:22;;;;;;;9.40;8.90;;;23.50;78.50;;;;;;3556471;40;20492;-56
2021/05/05 00:24:49;;;;;;;8.70;8.30;;;23.50;78.50;;;;;;3556406;40;20473;-56
2021/05/05 00:27:16;;;;;;;7.70;7.40;;;23.50;78.40;;;;;;3556138;40;20473;-56
2021/05/05 00:29:43;;;;;;;8.40;7.80;;;23.50;78.50;;;;;;3557063;40;20242;-56
2021/05/05 00:32:09;;;;;;;8.70;8.10;;;23.60;78.50;;;;;;3555505;40;20515;-54
2021/05/05 00:34:36;;;;;;;8.07;7.55;;;23.60;78.50;;;;;;3556285;40;20486;-55
2021/05/05 00:37:03;;;;;;;9.33;8.73;;;23.60;78.50;;;;;;3556081;40;20316;-56
2021/05/05 00:39:29;;;;;;;9.20;8.50;;;23.60;78.40;;;;;;3556493;40;20532;-58
2021/05/05 00:41:57;;;;;;;9.00;8.30;;;23.60;78.40;;;;;;3556061;40;20566;-57
2021/05/05 00:44:24;;;;;;;8.20;7.80;;;23.60;78.40;;;;;;3556063;40;20258;-53
2021/05/05 00:46:51;;;;;;;7.77;7.47;;;23.60;78.30;;;;;;3555747;40;20497;-56
2021/05/05 00:49:17;;;;;;;8.70;8.20;;;23.60;78.30;;;;;;3556013;40;20489;-56
2021/05/05 00:51:44;;;;;;;9.13;8.63;;;23.60;78.30;;;;;;3555821;40;20512;-55
2021/05/05 00:54:12;;;;;;;9.90;9.20;;;23.60;78.30;;;;;;3547112;40;20484;-57
2021/05/05 00:56:38;;;;;;;7.73;7.33;;;23.60;78.20;;;;;;3555228;40;20580;-57
2021/05/05 00:59:06;;;;;;;8.57;8.17;;;23.60;78.20;;;;;;3555173;40;20728;-57
2021/05/05 01:01:35;;;;;;;8.40;8.00;;;23.60;78.20;;;;;;3554950;40;20904;-57
2021/05/05 01:04:01;;;;;;;8.80;8.33;;;23.60;78.20;;;;;;3555031;40;20509;-56
2021/05/05 01:06:28;;;;;;;8.40;7.80;;;23.60;78.20;;;;;;3556251;40;20490;-56
2021/05/05 01:08:55;;;;;;;8.50;8.00;;;23.60;78.20;;;;;;3556028;40;20484;-56
2021/05/05 01:11:22;;;;;;;8.77;8.37;;;23.60;78.20;;;;;;3556016;40;20492;-57
2021/05/05 01:13:48;;;;;;;8.53;8.07;;;23.60;78.20;;;;;;3555406;40;20489;-56
2021/05/05 01:16:16;;;;;;;8.33;7.93;;;23.60;78.10;;;;;;3556759;40;20488;-56
2021/05/05 01:18:43;;;;;;;8.63;8.07;;;23.60;78.10;;;;;;3555333;40;20478;-57
2021/05/05 01:21:12;;;;;;;8.13;7.63;;;23.60;78.10;;;;;;3556150;40;21085;-56
2021/05/05 01:23:39;;;;;;;8.80;8.30;;;23.60;78.10;;;;;;3556725;40;20481;-57
2021/05/05 01:26:06;;;;;;;9.00;8.50;;;23.60;78.00;;;;;;3556670;40;20535;-58
2021/05/05 01:28:33;;;;;;;9.03;8.43;;;23.70;78.10;;;;;;3539098;40;20525;-55
2021/05/05 01:31:00;;;;;;;8.30;7.90;;;23.70;78.10;;;;;;3556560;40;20502;-58
2021/05/05 01:33:26;;;;;;;8.37;7.97;;;23.70;78.10;;;;;;3556582;40;20701;-56
2021/05/05 01:35:53;;;;;;;9.17;8.67;;;23.70;78.10;;;;;;3556344;40;20478;-57
2021/05/05 01:38:21;;;;;;;8.23;7.80;;;23.70;78.00;;;;;;3556990;40;20489;-56
2021/05/05 01:40:51;;;;;;;8.50;8.00;;;23.70;78.00;;;;;;3557401;40;20515;-55
2021/05/05 01:43:18;;;;;;;8.33;7.77;;;23.70;78.00;;;;;;3548149;40;20599;-56
2021/05/05 01:45:45;;;;;;;8.53;8.13;;;23.70;78.00;;;;;;3556705;40;20585;-56
2021/05/05 01:48:12;;;;;;;8.60;8.20;;;23.70;77.90;;;;;;3556553;40;20486;-56
2021/05/05 01:50:39;;;;;;;8.00;7.60;;;23.70;77.90;;;;;;3557143;40;20502;-55
2021/05/05 01:53:06;;;;;;;9.20;8.50;;;23.70;77.90;;;;;;3557008;40;20477;-56
2021/05/05 01:55:36;;;;;;;8.63;8.03;;;23.70;77.80;;;;;;3556373;40;20518;-56
2021/05/05 01:58:06;;;;;;;8.57;8.07;;;23.70;77.80;;;;;;3555500;40;20471;-57
2021/05/05 02:00:35;;;;;;;8.30;7.90;;;23.80;77.90;;;;;;3556037;40;20879;-57
2021/05/05 02:03:06;;;;;;;8.50;8.07;;;23.80;77.90;;;;;;3557500;40;20468;-56
2021/05/05 02:05:37;;;;;;;7.90;7.60;;;23.80;77.90;;;;;;3557134;40;20860;-56
2021/05/05 02:08:11;;;;;;;8.50;8.10;;;23.80;77.80;;;;;;3557014;40;20234;-55
2021/05/05 02:10:40;;;;;;;8.43;8.10;;;23.80;77.80;;;;;;3557137;40;20707;-55
2021/05/05 02:13:07;;;;;;;8.50;8.03;;;23.80;77.70;;;;;;3556313;40;20491;-56
2021/05/05 02:15:34;;;;;;;7.90;7.57;;;23.80;77.70;;;;;;3556086;40;20532;-53
2021/05/05 02:18:04;;;;;;;8.23;7.77;;;23.80;77.60;;;;;;3556458;40;20633;-55
2021/05/05 02:20:31;;;;;;;8.40;8.00;;;23.80;77.70;;;;;;3547737;40;20518;-54
2021/05/05 02:23:00;;;;;;;8.53;8.13;;;23.80;77.70;;;;;;3557068;40;20587;-53
2021/05/05 02:25:28;;;;;;;7.80;7.50;;;23.80;77.60;;;;;;3557259;40;20489;-54
2021/05/05 02:27:59;;;;;;;8.83;8.30;;;23.80;77.60;;;;;;3556881;40;20717;-56
2021/05/05 02:30:35;;;;;;;8.20;7.72;;;23.80;77.50;;;;;;3540989;40;20483;-57
2021/05/05 02:33:05;;;;;;;7.87;7.53;;;23.80;77.50;;;;;;3557200;40;20230;-55
2021/05/05 02:35:32;;;;;;;8.90;8.50;;;23.80;77.50;;;;;;3557744;40;20505;-54
2021/05/05 02:38:02;;;;;;;7.90;7.60;;;23.90;77.60;;;;;;3556076;40;20531;-56
2021/05/05 02:40:29;;;;;;;9.40;8.67;;;23.90;77.50;;;;;;3556981;40;20508;-56
2021/05/05 02:42:57;;;;;;;8.63;8.10;;;23.90;77.50;;;;;;3556466;40;20488;-57
2021/05/05 02:45:24;;;;;;;8.60;8.20;;;23.90;77.50;;;;;;3556000;40;20486;-56
2021/05/05 02:47:52;;;;;;;8.60;8.10;;;23.90;77.40;;;;;;3555581;40;20734;-54
2021/05/05 02:50:19;;;;;;;8.40;8.00;;;23.90;77.40;;;;;;3547955;40;20553;-55
2021/05/05 02:52:46;;;;;;;8.37;7.97;;;23.90;77.40;;;;;;3557423;40;21030;-54
2021/05/05 02:55:14;;;;;;;7.60;7.20;;;23.90;77.40;;;;;;3557347;40;20496;-55
2021/05/05 02:57:45;;;;;;;8.63;8.23;;;23.90;77.40;;;;;;3547104;40;20915;-57
2021/05/05 03:00:12;;;;;;;7.97;7.53;;;23.90;77.40;;;;;;3555981;40;20504;-56
2021/05/05 03:02:40;;;;;;;8.20;7.80;;;23.90;77.30;;;;;;3556063;40;20527;-57
2021/05/05 03:05:09;;;;;;;7.90;7.50;;;23.90;77.40;;;;;;3556639;40;20237;-53
2021/05/05 03:07:35;;;;;;;8.73;8.23;;;23.90;78.00;;;;;;3555638;40;20550;-57
2021/05/05 03:10:02;;;;;;;7.40;7.10;;;23.90;77.30;;;;;;3556277;40;21060;-56
2021/05/05 03:12:29;;;;;;;8.90;8.40;;;23.90;77.30;;;;;;3556915;40;20486;-57
2021/05/05 03:14:56;;;;;;;8.30;7.90;;;23.90;77.20;;;;;;3558276;40;20494;-58
2021/05/05 03:17:22;;;;;;;8.50;8.10;;;23.90;77.20;;;;;;3556534;40;20497;-53
2021/05/05 03:19:51;;;;;;;8.80;8.40;;;23.90;77.20;;;;;;3556298;40;21064;-56
2021/05/05 03:22:18;;;;;;;8.57;8.07;;;23.90;77.20;;;;;;3556755;40;20475;-57
2021/05/05 03:24:45;;;;;;;7.90;7.50;;;23.90;77.10;;;;;;3548546;40;20490;-58
2021/05/05 03:27:11;;;;;;;8.50;7.90;;;23.90;77.10;;;;;;3557065;40;20490;-58
2021/05/05 03:29:38;;;;;;;8.77;8.37;;;24.00;77.30;;;;;;3555269;40;20247;-55
2021/05/05 03:32:05;;;;;;;8.47;8.07;;;23.90;77.90;;;;;;3556780;40;20572;-56
2021/05/05 03:34:32;;;;;;;8.82;8.43;;;24.00;77.20;;;;;;3547140;40;20483;-57
2021/05/05 03:37:00;;;;;;;8.13;7.73;;;24.00;77.20;;;;;;3555795;40;20318;-57
2021/05/05 03:39:26;;;;;;;8.88;8.48;;;24.00;77.10;;;;;;3555195;40;20487;-57
2021/05/05 03:41:53;;;;;;;8.70;8.30;;;24.00;77.10;;;;;;3554859;40;20227;-56
2021/05/05 03:44:20;;;;;;;9.60;9.13;;;24.00;77.10;;;;;;3555982;40;20480;-56
2021/05/05 03:46:46;;;;;;;8.50;8.20;;;24.00;77.10;;;;;;3555899;40;20489;-57
2021/05/05 03:49:13;;;;;;;9.02;8.57;;;24.00;77.00;;;;;;3555029;40;20487;-55
2021/05/05 03:51:40;;;;;;;9.05;8.65;;;24.00;77.00;;;;;;3555402;40;20746;-55
2021/05/05 03:54:07;;;;;;;9.40;9.00;;;24.00;77.00;;;;;;3555004;40;20232;-56
2021/05/05 03:56:34;;;;;;;9.57;9.03;;;24.00;76.90;;;;;;3555076;40;20577;-56
2021/05/05 03:59:00;;;;;;;8.87;8.47;;;24.10;76.90;;;;;;3545569;40;20499;-56
2021/05/05 04:01:27;;;;;;;9.10;8.70;;;24.10;76.90;;;;;;3555035;40;20711;-58
2021/05/05 04:03:54;;;;;;;9.10;8.60;;;24.10;76.90;;;;;;3554336;40;20243;-57
2021/05/05 04:06:20;;;;;;;9.90;9.40;;;24.10;76.80;;;;;;3553859;40;20490;-54
2021/05/05 04:08:47;;;;;;;9.80;9.30;;;24.10;76.80;;;;;;3554186;40;20464;-56
2021/05/05 04:11:15;;;;;;;9.57;9.17;;;24.10;76.80;;;;;;3554265;40;20495;-58
2021/05/05 04:13:41;;;;;;;8.97;8.60;;;24.20;76.80;;;;;;3554339;40;20502;-56
2021/05/05 04:16:08;;;;;;;9.40;9.00;;;24.20;76.80;;;;;;3555166;40;20853;-57
2021/05/05 04:18:34;;;;;;;9.50;9.10;;;24.10;76.60;;;;;;3546129;40;20567;-56
2021/05/05 04:21:04;;;;;;;9.73;9.32;;;24.10;76.70;;;;;;3554314;40;20475;-56
2021/05/05 04:23:32;;;;;;;9.77;9.33;;;24.20;76.80;;;;;;3563928;40;20235;-56
2021/05/05 04:25:58;;;;;;;10.00;9.60;;;24.10;76.70;;;;;;3563765;40;20484;-57
2021/05/05 04:28:26;;;;;;;9.75;9.15;;;24.20;76.80;;;;;;3563457;40;20828;-56
2021/05/05 04:30:53;;;;;;;9.37;8.87;;;24.20;76.80;;;;;;3554320;40;20231;-57
2021/05/05 04:33:20;;;;;;;9.40;8.90;;;24.20;76.70;;;;;;3562133;40;20492;-57
2021/05/05 04:35:47;;;;;;;9.27;8.87;;;24.20;76.70;;;;;;3561866;40;20478;-57
2021/05/05 04:38:14;;;;;;;10.10;9.70;;;24.20;76.70;;;;;;3561922;40;20534;-56
2021/05/05 04:40:41;;;;;;;9.83;9.43;;;24.20;76.70;;;;;;3563663;40;20235;-57
2021/05/05 04:43:08;;;;;;;10.03;9.53;;;24.20;76.70;;;;;;3563233;40;20489;-56
2021/05/05 04:45:35;;;;;;;9.57;9.07;;;24.20;76.70;;;;;;3562686;40;20869;-56
2021/05/05 04:48:03;;;;;;;9.30;8.90;;;24.20;76.70;;;;;;3562577;40;20231;-57
2021/05/05 04:50:30;;;;;;;9.73;9.30;;;24.20;76.70;;;;;;3561457;40;20914;-57
2021/05/05 04:52:57;;;;;;;9.30;8.80;;;24.20;76.60;;;;;;3562091;40;20484;-56
2021/05/05 04:55:24;;;;;;;9.50;9.10;;;24.20;76.50;;;;;;3552896;40;20498;-56
2021/05/05 04:57:51;;;;;;;9.30;8.90;;;24.20;76.50;;;;;;3561689;40;20712;-57
2021/05/05 05:00:19;;;;;;;9.17;8.77;;;24.20;76.50;;;;;;3560449;40;20494;-57
2021/05/05 05:02:46;;;;;;;8.87;8.40;;;24.30;76.60;;;;;;3546225;40;20780;-56
2021/05/05 05:05:13;;;;;;;8.70;8.37;;;24.30;76.60;;;;;;3545140;40;20512;-56
2021/05/05 05:07:39;;;;;;;9.50;9.10;;;24.30;76.60;;;;;;3561062;40;20493;-55
2021/05/05 05:10:07;;;;;;;9.03;8.63;;;24.30;76.50;;;;;;3555829;40;20845;-56
2021/05/05 05:12:34;;;;;;;9.20;8.70;;;24.30;76.50;;;;;;3558851;40;20478;-56
2021/05/05 05:15:01;;;;;;;8.87;8.40;;;24.30;76.50;;;;;;3559723;40;20888;-56
2021/05/05 05:17:28;;;;;;;8.80;8.33;;;24.30;76.60;;;;;;3558502;40;20475;-55
2021/05/05 05:19:55;;;;;;;8.50;8.20;;;24.30;76.50;;;;;;3559526;40;20491;-57
2021/05/05 05:22:22;;;;;;;8.70;8.30;;;24.30;76.50;;;;;;3558640;40;20485;-57
2021/05/05 05:24:49;;;;;;;9.57;8.90;;;24.30;76.50;;;;;;3557602;40;20560;-55
2021/05/05 05:27:16;;;;;;;9.40;8.90;;;24.30;76.50;;;;;;3556151;40;20491;-56
2021/05/05 05:29:42;;;;;;;9.27;8.87;;;24.30;76.50;;;;;;3547574;40;20490;-56
2021/05/05 05:32:09;;;;;;;9.00;8.60;;;24.30;76.50;;;;;;3549463;40;20506;-56
2021/05/05 05:34:36;;;;;;;8.93;8.53;;;24.30;76.50;;;;;;3558754;40;21292;-57
2021/05/05 05:37:05;;;;;;;8.80;8.40;;;24.30;76.50;;;;;;3554454;40;20998;-57
2021/05/05 05:39:31;;;;;;;8.20;7.90;;;24.30;76.50;;;;;;3554270;40;20784;-53
2021/05/05 05:41:58;;;;;;;8.23;7.93;;;24.20;76.50;;;;;;3553367;40;20888;-56
2021/05/05 05:44:24;;;;;;;8.57;8.17;;;24.20;76.40;;;;;;3554598;40;20607;-57
2021/05/05 05:46:51;;;;;;;8.73;8.33;;;24.30;76.60;;;;;;3551746;40;20757;-55
2021/05/05 05:49:17;;;;;;;8.60;8.20;;;24.20;76.50;;;;;;3552816;40;20577;-54
2021/05/05 05:51:44;;;;;;;8.40;8.00;;;24.20;76.40;;;;;;3550602;40;20504;-54
2021/05/05 05:54:12;;;;;;;9.03;8.50;;;24.20;76.40;;;;;;3551403;40;20478;-58
2021/05/05 05:56:39;;;;;;;9.07;8.57;;;24.30;76.60;;;;;;3549118;40;21210;-56
2021/05/05 05:59:05;;;;;;;9.33;8.73;;;24.20;76.60;;;;;;3554363;40;20329;-57
2021/05/05 06:01:33;;;;;;;9.25;8.85;;;24.20;76.70;;;;;;3554298;40;20496;-57
2021/05/05 06:04:02;;;;;;;8.37;7.97;;;24.20;76.60;;;;;;3554882;40;20244;-58
2021/05/05 06:06:28;;;;;;;9.73;8.87;;;24.30;76.80;;;;;;3551152;40;20572;-57
2021/05/05 06:08:55;;;;;;;9.50;8.70;;;24.30;77.00;;;;;;3552700;40;20490;-57
2021/05/05 06:11:22;;;;;;;8.70;8.30;;;24.30;77.00;;;;;;3551540;40;20509;-57
2021/05/05 06:13:49;;;;;;;9.27;8.77;;;24.30;77.00;;;;;;3551744;40;20487;-56
2021/05/05 06:16:17;;;;;;;11.90;9.60;;;24.30;77.20;;;;;;3551896;40;20234;-56
2021/05/05 06:18:44;;;;;;;9.57;8.63;;;24.30;77.30;;;;;;3550269;40;20479;-56
2021/05/05 06:21:11;;;;;;;8.77;8.20;;;24.20;77.20;;;;;;3550790;40;20483;-57
2021/05/05 06:23:37;;;;;;;7.93;7.43;;;24.20;77.40;;;;;;3550458;40;20486;-56
2021/05/05 06:26:04;;;;;;;6.93;6.73;;;24.20;68.50;;;;;;3547495;40;20516;-56
2021/05/05 06:28:31;;;;;;;6.97;6.57;;;23.90;64.10;;;;;;3546952;40;20906;-57
2021/05/05 06:30:58;;;;;;;6.40;6.20;;;23.60;61.40;;;;;;3549053;40;20532;-55
2021/05/05 06:33:25;;;;;;;6.80;6.60;;;23.20;62.10;;;;;;3552039;40;20329;-58
2021/05/05 06:35:52;;;;;;;6.87;6.57;;;22.90;62.10;;;;;;3550660;40;20503;-56
2021/05/05 06:38:19;;;;;;;8.53;7.93;;;22.70;61.90;;;;;;3551280;40;20506;-57
2021/05/05 06:40:46;;;;;;;7.90;7.40;;;22.50;61.30;;;;;;3552552;40;20507;-56
2021/05/05 06:43:12;;;;;;;9.03;8.43;;;22.30;61.70;;;;;;3549404;40;20491;-57
2021/05/05 06:45:40;;;;;;;9.87;9.17;;;22.10;61.50;;;;;;3551730;40;20483;-56
2021/05/05 06:48:07;;;;;;;16.30;14.87;;;22.00;62.60;;;;;;3548790;40;20485;-55
2021/05/05 06:50:34;;;;;;;17.57;15.77;;;22.10;65.50;;;;;;3549463;40;20893;-56
2021/05/05 06:53:00;;;;;;;19.00;17.07;;;22.20;68.10;;;;;;3549611;40;20806;-56
2021/05/05 06:55:27;;;;;;;18.40;16.70;;;22.40;68.30;;;;;;3549570;40;20499;-57
2021/05/05 06:57:54;;;;;;;16.93;15.40;;;22.60;69.10;;;;;;3549215;40;20493;-56
2021/05/05 07:00:21;;;;;;;17.07;15.63;;;22.70;69.50;;;;;;3548153;40;20473;-56
2021/05/05 07:02:48;;;;;;;16.20;14.80;;;22.90;70.10;;;;;;3549707;40;20955;-55
2021/05/05 07:05:15;;;;;;;17.10;15.40;;;23.00;70.40;;;;;;3548133;40;20497;-55
2021/05/05 07:07:42;;;;;;;14.90;13.57;;;23.10;70.70;;;;;;3550467;40;20507;-55
2021/05/05 07:10:11;;;;;;;13.97;12.77;;;23.30;71.10;;;;;;3549953;40;20492;-55
2021/05/05 07:12:38;;;;;;;13.93;12.53;;;23.40;71.30;;;;;;3551957;40;20485;-53
2021/05/05 07:15:06;;;;;;;12.97;11.87;;;23.50;71.60;;;;;;3547414;40;20546;-55
2021/05/05 07:17:33;;;;;;;12.23;11.20;;;23.60;72.00;;;;;;3548657;40;20502;-54
2021/05/05 07:20:01;;;;;;;12.40;11.17;;;23.60;72.20;;;;;;3547811;40;20867;-54
2021/05/05 07:22:28;;;;;;;11.33;10.33;;;23.70;72.40;;;;;;3546304;40;20496;-55
2021/05/05 07:24:55;;;;;;;11.43;10.33;;;23.80;72.60;;;;;;3538462;40;20567;-55
2021/05/05 07:27:21;;;;;;;10.40;9.60;;;23.80;72.50;;;;;;3549462;40;20519;-55
2021/05/05 07:29:49;;;;;;;11.67;9.40;;;23.90;72.70;;;;;;3549211;40;20509;-55
2021/05/05 07:32:15;;;;;;;10.27;9.57;;;23.90;72.70;;;;;;3548620;40;20830;-57
2021/05/05 07:34:43;;;;;;;9.70;8.70;;;24.00;72.90;;;;;;3547665;40;20530;-54
2021/05/05 07:37:13;;;;;;;9.13;8.43;;;24.00;72.80;;;;;;3531218;40;20718;-50
2021/05/05 07:45:30;;;;;;;8.43;7.87;;;24.10;73.00;;;;;;3545008;40;20778;-50
2021/05/05 07:48:02;;;;;;;9.30;8.53;;;24.20;73.10;;;;;;3543663;40;20789;-51
2021/05/05 07:50:29;;;;;;;8.80;7.97;;;24.20;73.30;;;;;;3541902;40;20550;-51
2021/05/05 07:52:57;;;;;;;8.33;7.63;;;24.20;73.30;;;;;;3543042;40;20805;-50
2021/05/05 07:55:23;;;;;;;8.90;8.30;;;24.30;73.40;;;;;;3543671;40;20485;-51
2021/05/05 07:57:50;;;;;;;7.73;7.13;;;24.30;73.50;;;;;;3546081;40;20760;-50
2021/05/05 08:00:18;;;;;;;7.93;7.47;;;24.30;73.60;;;;;;3545105;40;20652;-49
2021/05/05 08:02:44;;;;;;;9.00;8.10;;;24.40;73.90;;;;;;3545292;40;20591;-52
2021/05/05 08:05:11;;;;;;;8.53;7.80;;;24.40;73.90;;;;;;3545142;40;20583;-50
2021/05/05 08:07:38;;;;;;;8.33;7.73;;;24.40;74.00;;;;;;3543653;40;20521;-52
2021/05/05 08:10:07;;;;;;;8.27;7.47;;;24.40;74.10;;;;;;3542316;40;20496;-51
2021/05/05 08:12:34;;;;;;;8.27;7.97;;;24.40;74.10;;;;;;3542160;40;20792;-50
2021/05/05 08:15:00;;;;;;;8.10;7.70;;;24.40;74.00;;;;;;3545470;40;20930;-50
2021/05/05 08:17:28;;;;;;;8.10;7.60;;;24.40;74.10;;;;;;3546497;40;20785;-51
2021/05/05 08:19:54;;;;;;;8.67;8.17;;;24.40;74.20;;;;;;3543648;40;20483;-50
2021/05/05 08:22:21;;;;;;;8.60;8.00;;;24.40;74.10;;;;;;3542480;40;20489;-50
2021/05/05 08:24:47;;;;;;;8.10;7.50;;;24.40;74.10;;;;;;3536647;40;20637;-52
2021/05/05 08:27:15;;;;;;;7.97;7.57;;;24.40;74.10;;;;;;3545058;40;21234;-51
2021/05/05 08:29:42;;;;;;;7.40;7.10;;;24.40;74.20;;;;;;3544800;40;20904;-51
2021/05/05 08:32:08;;;;;;;7.40;7.10;;;24.40;74.20;;;;;;3544539;40;20493;-51
2021/05/05 08:34:35;;;;;;;7.97;7.20;;;24.40;74.20;;;;;;3544381;40;20486;-53
2021/05/05 08:37:02;;;;;;;7.43;6.83;;;24.40;74.30;;;;;;3544192;40;20486;-52
2021/05/05 08:39:28;;;;;;;8.13;7.63;;;24.40;74.30;;;;;;3546174;40;20483;-52
2021/05/05 08:41:57;;;;;;;8.20;7.70;;;24.40;74.30;;;;;;3544531;40;20861;-53
2021/05/05 08:44:25;;;;;;;10.30;7.80;;;24.40;74.30;;;;;;3545414;40;20599;-51
2021/05/05 08:46:52;;;;;;;7.50;6.80;;;24.40;74.30;;;;;;3545471;40;20480;-51
2021/05/05 08:49:19;;;;;;;6.83;6.43;;;24.40;74.30;;;;;;3543331;40;21035;-50
2021/05/05 08:51:48;;;;;;;7.10;6.70;;;24.40;74.40;;;;;;3543862;40;20746;-50
2021/05/05 08:54:15;;;;;;;7.90;7.30;;;24.40;74.40;;;;;;3543289;40;20491;-50
2021/05/05 08:56:42;;;;;;;8.50;6.73;;;24.40;74.50;;;;;;3545289;40;20474;-50
2021/05/05 08:59:10;;;;;;;6.43;6.13;;;24.40;74.50;;;;;;3544407;40;20513;-50
2021/05/05 09:01:39;;;;;;;7.67;7.13;;;24.40;74.60;;;;;;3544889;40;20666;-50
2021/05/05 09:04:07;;;;;;;6.73;6.37;;;24.40;74.50;;;;;;3546407;40;21060;-50
2021/05/05 09:06:52;;;;;;;6.63;6.33;;;24.40;74.50;;;;;;3542223;40;20661;-50
2021/05/05 09:09:36;;;;;;;7.70;7.40;;;24.40;74.50;;;;;;3542924;40;20591;-50
2021/05/05 09:12:20;;;;;;;7.47;7.07;;;24.40;74.50;;;;;;3544794;40;20689;-51
2021/05/05 09:14:52;;;;;;;6.90;6.40;;;24.40;74.50;;;;;;3543534;40;21061;-51
2021/05/05 09:17:21;;;;;;;6.93;6.53;;;24.40;74.60;;;;;;3543676;40;20502;-50
2021/05/05 09:19:48;;;;;;;8.37;7.83;;;24.40;74.60;;;;;;3546598;40;20229;-50
2021/05/05 09:22:38;;;;;;;7.03;6.70;;;24.40;74.50;;;;;;3544229;40;20498;-50
2021/05/05 09:25:07;;;;;;;7.68;7.07;;;24.40;74.60;;;;;;3545164;40;20513;-50
2021/05/05 09:27:34;;;;;;;8.03;7.43;;;24.40;74.70;;;;;;3543228;40;20559;-51
2021/05/05 09:30:03;;;;;;;8.13;7.10;;;24.40;74.70;;;;;;3545651;40;20718;-50
2021/05/05 09:32:46;;;;;;;7.90;7.50;;;24.40;74.80;;;;;;3539773;40;20733;-53
2021/05/05 09:35:13;;;;;;;7.07;6.77;;;24.40;74.90;;;;;;3544495;40;20665;-50
2021/05/05 09:37:40;;;;;;;7.33;6.93;;;24.40;74.90;;;;;;3543323;40;20575;-49
2021/05/05 09:40:09;;;;;;;6.87;6.53;;;24.40;74.90;;;;;;3534572;40;20604;-50
2021/05/05 09:42:36;;;;;;;7.30;6.80;;;24.40;74.90;;;;;;3535278;40;20696;-50
2021/05/05 09:45:05;;;;;;;6.90;6.50;;;24.40;74.90;;;;;;3543832;40;20531;-50
2021/05/05 09:47:47;;;;;;;6.60;6.30;;;24.40;74.90;;;;;;3542356;40;20634;-50
2021/05/05 09:50:43;;;;;;;7.37;7.00;;;24.40;74.90;;;;;;3544670;40;20510;-49
2021/05/05 09:53:17;;;;;;;6.57;6.27;;;24.40;74.90;;;;;;3524935;40;20636;-51
2021/05/05 09:55:45;;;;;;;6.43;6.10;;;24.40;74.90;;;;;;3544904;40;20508;-51
2021/05/05 09:58:26;;;;;;;6.80;6.30;;;24.30;74.80;;;;;;3543525;40;20483;-50
2021/05/05 10:01:12;;;;;;;7.43;6.90;;;24.30;74.90;;;;;;3543902;40;20729;-50
2021/05/05 10:03:41;;;;;;;6.80;6.50;;;24.30;74.90;;;;;;3544200;40;20562;-50
2021/05/05 10:06:28;;;;;;;7.70;7.00;;;24.30;74.90;;;;;;3544450;40;20606;-50
2021/05/05 10:08:56;;;;;;;7.23;6.47;;;24.30;74.90;;;;;;3535108;40;20484;-49
2021/05/05 10:11:25;;;;;;;6.93;6.53;;;24.30;74.90;;;;;;3542754;40;20498;-50
2021/05/05 10:13:54;;;;;;;7.37;6.87;;;24.30;75.00;;;;;;3544756;40;20820;-50
2021/05/05 10:16:24;;;;;;;6.70;6.40;;;24.30;75.00;;;;;;3534839;40;20486;-49
2021/05/05 10:18:52;;;;;;;6.85;6.55;;;24.20;74.90;;;;;;3542442;40;20581;-49
2021/05/05 10:21:25;;;;;;;6.27;6.07;;;24.20;74.90;;;;;;3544146;40;20750;-49
2021/05/05 10:23:56;;;;;;;6.47;5.90;;;24.20;74.80;;;;;;3543267;40;20883;-50
2021/05/05 10:26:23;;;;;;;6.70;6.30;;;24.20;74.80;;;;;;3545843;40;20497;-49
2021/05/05 10:28:50;;;;;;;7.30;6.80;;;24.20;74.90;;;;;;3544382;40;21039;-49
2021/05/05 10:31:20;;;;;;;6.45;6.25;;;24.20;74.90;;;;;;3537463;40;20500;-53
2021/05/05 10:33:50;;;;;;;6.93;6.53;;;24.20;74.90;;;;;;3539649;40;20250;-50
2021/05/05 10:36:33;;;;;;;6.40;6.10;;;24.20;74.90;;;;;;3549582;40;20489;-51
2021/05/05 10:39:03;;;;;;;6.60;6.30;;;24.20;75.00;;;;;;3546962;40;20489;-53
2021/05/05 10:41:34;;;;;;;6.87;6.37;;;24.20;74.90;;;;;;3550458;40;20491;-50
2021/05/05 10:44:02;;;;;;;7.10;6.60;;;24.20;74.90;;;;;;3538350;40;20510;-50
2021/05/05 10:46:33;;;;;;;7.20;6.70;;;24.20;74.90;;;;;;3538410;40;20576;-51
2021/05/05 10:49:10;;;;;;;7.20;6.80;;;24.20;74.80;;;;;;3531085;40;20491;-49
2021/05/05 10:52:00;;;;;;;7.47;7.00;;;24.20;74.90;;;;;;3537210;40;20765;-50
2021/05/05 10:54:51;;;;;;;6.77;6.47;;;24.20;74.90;;;;;;3538459;40;21153;-51
2021/05/05 10:57:19;;;;;;;9.80;6.53;;;24.20;75.00;;;;;;3541459;40;20579;-50
2021/05/05 11:00:07;;;;;;;7.07;6.60;;;24.20;74.90;;;;;;3550191;40;20896;-51
2021/05/05 11:02:53;;;;;;;6.67;6.37;;;24.20;75.00;;;;;;3549404;40;20490;-52
2021/05/05 11:05:22;;;;;;;6.87;6.43;;;24.20;75.00;;;;;;3551599;40;20951;-50
2021/05/05 11:07:54;;;;;;;7.30;6.83;;;24.20;75.00;;;;;;3550510;40;20489;-55
2021/05/05 11:10:50;;;;;;;6.97;6.57;;;24.20;75.10;;;;;;3552046;40;20521;-55
2021/05/05 11:13:43;;;;;;;7.40;6.80;;;24.20;75.10;;;;;;3551447;40;20476;-53
2021/05/05 11:16:10;;;;;;;6.80;6.50;;;24.20;75.20;;;;;;3550471;40;20549;-52
2021/05/05 11:18:42;;;;;;;6.83;6.53;;;24.20;75.20;;;;;;3548280;40;20490;-49
2021/05/05 11:21:10;;;;;;;7.50;7.10;;;24.10;75.20;;;;;;3550814;40;20478;-53
2021/05/05 11:23:44;;;;;;;6.60;6.30;;;24.10;75.30;;;;;;3550087;40;20497;-55
2021/05/05 11:26:19;;;;;;;7.17;6.87;;;24.10;75.30;;;;;;3550227;40;20611;-57
2021/05/05 11:28:55;;;;;;;7.90;7.40;;;24.10;75.40;;;;;;3547505;40;21016;-56
2021/05/05 11:31:37;;;;;;;7.50;7.10;;;24.10;75.40;;;;;;3548383;40;20835;-56
2021/05/05 11:34:04;;;;;;;6.93;6.50;;;24.10;75.40;;;;;;3550640;40;20497;-56
2021/05/05 11:36:31;;;;;;;6.80;6.50;;;24.10;75.50;;;;;;3551006;40;20812;-54
2021/05/05 11:38:58;;;;;;;7.83;7.20;;;24.10;75.60;;;;;;3550877;40;20512;-53
2021/05/05 11:41:25;;;;;;;6.90;6.60;;;24.10;75.60;;;;;;3549986;40;20655;-55
2021/05/05 11:43:52;;;;;;;7.57;7.17;;;24.10;75.70;;;;;;3551411;40;20576;-55
2021/05/05 11:46:22;;;;;;;6.80;6.50;;;24.10;75.80;;;;;;3549454;40;20581;-53
2021/05/05 11:48:49;;;;;;;6.90;6.60;;;24.10;75.80;;;;;;3550046;40;20568;-55
2021/05/05 11:51:21;;;;;;;7.40;7.10;;;24.10;75.90;;;;;;3541088;40;20529;-51
2021/05/05 11:53:48;;;;;;;7.47;6.87;;;24.10;75.90;;;;;;3549944;40;20560;-55
2021/05/05 11:56:18;;;;;;;7.90;7.40;;;24.10;75.90;;;;;;3549998;40;20496;-53
2021/05/05 11:58:54;;;;;;;6.97;6.67;;;24.10;76.00;;;;;;3550697;40;20489;-54
2021/05/05 12:01:32;;;;;;;7.73;7.33;;;24.00;75.90;;;;;;3547839;40;20496;-52
2021/05/05 12:04:18;;;;;;;7.20;6.90;;;24.00;76.00;;;;;;3549127;40;20533;-55
2021/05/05 12:06:53;;;;;;;7.80;7.30;;;24.10;76.10;;;;;;3548904;40;20497;-56
2021/05/05 12:09:25;;;;;;;8.20;7.50;;;24.00;76.00;;;;;;3551083;40;20248;-52
2021/05/05 12:12:26;;;;;;;7.40;7.00;;;24.00;76.00;;;;;;3546550;40;20494;-55
2021/05/05 12:14:59;;;;;;;6.90;6.60;;;24.10;76.20;;;;;;3548186;40;20529;-55
2021/05/05 12:17:30;;;;;;;7.03;6.53;;;24.00;76.10;;;;;;3547431;40;20328;-57
2021/05/05 12:20:09;;;;;;;7.00;6.70;;;24.00;76.10;;;;;;3549512;40;20697;-54
2021/05/05 12:22:37;;;;;;;6.97;6.33;;;24.00;76.20;;;;;;3546323;40;20227;-55
2021/05/05 12:25:15;;;;;;;7.13;6.57;;;24.00;76.30;;;;;;3550663;40;20490;-54
2021/05/05 12:28:09;;;;;;;6.43;6.00;;;24.00;76.40;;;;;;3548511;40;20485;-53
2021/05/05 12:30:49;;;;;;;7.00;6.50;;;24.00;76.50;;;;;;3546286;40;21212;-52
2021/05/05 12:33:17;;;;;;;7.30;6.73;;;24.00;76.50;;;;;;3547556;40;20972;-55
2021/05/05 12:35:44;;;;;;;7.27;6.77;;;24.00;76.60;;;;;;3547162;40;20578;-55
2021/05/05 12:38:15;;;;;;;7.27;6.93;;;24.00;76.70;;;;;;3547245;40;20498;-53
2021/05/05 12:40:43;;;;;;;7.47;6.87;;;24.00;76.70;;;;;;3550700;40;21429;-52
2021/05/05 12:43:21;;;;;;;6.37;5.97;;;24.00;77.50;;;;;;3547153;40;20525;-54
2021/05/05 12:45:51;;;;;;;6.07;5.77;;;24.00;76.80;;;;;;3538025;40;20568;-53
2021/05/05 12:48:27;;;;;;;6.20;5.90;;;24.00;76.80;;;;;;3541541;40;20485;-55
2021/05/05 12:50:54;;;;;;;7.00;6.27;;;24.00;76.90;;;;;;3540190;40;20478;-55
2021/05/05 12:53:24;;;;;;;8.63;6.40;;;24.00;76.80;;;;;;3540589;40;20482;-53
2021/05/05 12:55:57;;;;;;;6.83;6.43;;;24.00;77.60;;;;;;3542922;40;20848;-54
2021/05/05 12:58:39;;;;;;;7.37;6.87;;;24.00;77.10;;;;;;3540853;40;20823;-56
2021/05/05 13:01:11;;;;;;;6.80;6.50;;;24.00;77.10;;;;;;3548025;40;20489;-54